sensor_id;sensor_type;location;lat;lon;timestamp;temperature;humidity
18753;DHT22;9505;50.882;5.350;2022-10-31T00:00:18;12.80;99.90
18753;DHT22;9505;50.882;5.350;2022-10-31T00:02:44;12.70;99.90
18753;DHT22;9505;50.882;5.350;2022-10-31T00:05:09;12.70;99.90
18753;DHT22;9505;50.882;5.350;2022-10-31T00:07:35;12.70;99.90
18753;DHT22;9505;50.882;5.350;2022-10-31T00:10:01;12.80;99.90
18753;DHT22;9505;50.882;5.350;2022-10-31T00:12:26;12.90;99.90
18753;DHT22;9505;50.882;5.350;2022-10-31T00:14:52;12.90;99.90
18753;DHT22;9505;50.882;5.350;2022-10-31T00:17:17;13.00;99.90
18753;DHT22;9505;50.882;5.350;2022-10-31T00:19:43;13.00;99.90
18753;DHT22;9505;50.882;5.350;2022-10-31T00:22:08;13.10;99.90
18753;DHT22;9505;50.882;5.350;2022-10-31T00:24:34;13.00;99.90
18753;DHT22;9505;50.882;5.350;2022-10-31T00:27:00;13.00;99.90
18753;DHT22;9505;50.882;5.350;2022-10-31T00:29:25;13.00;99.90
18753;DHT22;9505;50.882;5.350;2022-10-31T00:31:52;13.00;99.90
18753;DHT22;9505;50.882;5.350;2022-10-31T00:34:18;13.00;99.90
18753;DHT22;9505;50.882;5.350;2022-10-31T00:36:43;12.90;99.90
18753;DHT22;9505;50.882;5.350;2022-10-31T00:39:09;12.90;99.90
18753;DHT22;9505;50.882;5.350;2022-10-31T00:41:35;12.90;99.90
18753;DHT22;9505;50.882;5.350;2022-10-31T00:44:00;12.90;99.90
18753;DHT22;9505;50.882;5.350;2022-10-31T00:46:26;12.90;99.90
18753;DHT22;9505;50.882;5.350;2022-10-31T00:48:55;12.90;99.90
18753;DHT22;9505;50.882;5.350;2022-10-31T00:51:20;12.90;99.90
18753;DHT22;9505;50.882;5.350;2022-10-31T00:53:46;12.90;99.90
18753;DHT22;9505;50.882;5.350;2022-10-31T00:56:12;12.90;99.90
18753;DHT22;9505;50.882;5.350;2022-10-31T00:58:37;12.90;99.90
18753;DHT22;9505;50.882;5.350;2022-10-31T01:01:04;12.90;99.90
18753;DHT22;9505;50.882;5.350;2022-10-31T01:03:31;12.80;99.90
18753;DHT22;9505;50.882;5.350;2022-10-31T01:06:18;12.80;99.90
18753;DHT22;9505;50.882;5.350;2022-10-31T01:08:43;12.80;99.90
18753;DHT22;9505;50.882;5.350;2022-10-31T01:11:22;12.80;99.90
18753;DHT22;9505;50.882;5.350;2022-10-31T01:13:51;12.80;99.90
18753;DHT22;9505;50.882;5.350;2022-10-31T01:16:19;12.70;99.90
18753;DHT22;9505;50.882;5.350;2022-10-31T01:18:45;12.70;99.90
18753;DHT22;9505;50.882;5.350;2022-10-31T01:21:15;12.60;99.90
18753;DHT22;9505;50.882;5.350;2022-10-31T01:23:41;12.60;99.90
18753;DHT22;9505;50.882;5.350;2022-10-31T01:26:08;12.50;99.90
18753;DHT22;9505;50.882;5.350;2022-10-31T01:28:40;12.50;99.90
18753;DHT22;9505;50.882;5.350;2022-10-31T01:31:09;12.40;99.90
18753;DHT22;9505;50.882;5.350;2022-10-31T01:33:36;12.40;99.90
18753;DHT22;9505;50.882;5.350;2022-10-31T01:36:10;12.40;99.90
18753;DHT22;9505;50.882;5.350;2022-10-31T01:38:36;12.40;99.90
18753;DHT22;9505;50.882;5.350;2022-10-31T01:41:02;12.30;99.90
18753;DHT22;9505;50.882;5.350;2022-10-31T01:43:50;12.30;99.90
18753;DHT22;9505;50.882;5.350;2022-10-31T01:46:22;12.20;99.90
18753;DHT22;9505;50.882;5.350;2022-10-31T01:48:50;12.20;99.90
18753;DHT22;9505;50.882;5.350;2022-10-31T01:51:19;12.10;99.90
18753;DHT22;9505;50.882;5.350;2022-10-31T01:53:46;12.10;99.90
18753;DHT22;9505;50.882;5.350;2022-10-31T01:56:13;12.10;99.90
18753;DHT22;9505;50.882;5.350;2022-10-31T01:58:41;12.10;99.90
18753;DHT22;9505;50.882;5.350;2022-10-31T02:01:07;12.10;99.90
18753;DHT22;9505;50.882;5.350;2022-10-31T02:03:33;12.00;99.90
18753;DHT22;9505;50.882;5.350;2022-10-31T02:05:59;12.00;99.90
18753;DHT22;9505;50.882;5.350;2022-10-31T02:08:30;12.00;99.90
18753;DHT22;9505;50.882;5.350;2022-10-31T02:10:57;11.90;99.90
18753;DHT22;9505;50.882;5.350;2022-10-31T02:13:23;12.00;99.90
18753;DHT22;9505;50.882;5.350;2022-10-31T02:15:52;12.00;99.90
18753;DHT22;9505;50.882;5.350;2022-10-31T02:18:19;12.00;99.90
18753;DHT22;9505;50.882;5.350;2022-10-31T02:26:39;11.90;99.90
18753;DHT22;9505;50.882;5.350;2022-10-31T02:34:37;11.70;99.90
18753;DHT22;9505;50.882;5.350;2022-10-31T02:43:02;11.60;99.90
18753;DHT22;9505;50.882;5.350;2022-10-31T02:46:13;11.60;99.90
18753;DHT22;9505;50.882;5.350;2022-10-31T02:48:26;11.60;99.90
18753;DHT22;9505;50.882;5.350;2022-10-31T02:50:58;11.60;99.90
18753;DHT22;9505;50.882;5.350;2022-10-31T02:53:25;11.50;99.90
18753;DHT22;9505;50.882;5.350;2022-10-31T02:58:34;11.60;99.90
18753;DHT22;9505;50.882;5.350;2022-10-31T03:12:49;11.50;99.90
18753;DHT22;9505;50.882;5.350;2022-10-31T03:15:24;11.50;99.90
18753;DHT22;9505;50.882;5.350;2022-10-31T03:20:39;11.50;99.90
18753;DHT22;9505;50.882;5.350;2022-10-31T03:23:09;11.50;99.90
18753;DHT22;9505;50.882;5.350;2022-10-31T03:25:37;11.60;99.90
18753;DHT22;9505;50.882;5.350;2022-10-31T03:28:04;11.50;99.90
18753;DHT22;9505;50.882;5.350;2022-10-31T03:30:32;11.50;99.90
18753;DHT22;9505;50.882;5.350;2022-10-31T03:32:59;11.50;99.90
18753;DHT22;9505;50.882;5.350;2022-10-31T03:35:29;11.40;99.90
18753;DHT22;9505;50.882;5.350;2022-10-31T03:37:56;11.40;99.90
18753;DHT22;9505;50.882;5.350;2022-10-31T03:40:27;11.30;99.90
18753;DHT22;9505;50.882;5.350;2022-10-31T03:43:01;11.40;99.90
18753;DHT22;9505;50.882;5.350;2022-10-31T03:45:30;11.30;99.90
18753;DHT22;9505;50.882;5.350;2022-10-31T03:47:58;11.30;99.90
18753;DHT22;9505;50.882;5.350;2022-10-31T03:50:28;11.20;99.90
18753;DHT22;9505;50.882;5.350;2022-10-31T03:53:03;11.20;99.90
18753;DHT22;9505;50.882;5.350;2022-10-31T03:55:40;11.20;99.90
18753;DHT22;9505;50.882;5.350;2022-10-31T03:58:12;11.20;99.90
18753;DHT22;9505;50.882;5.350;2022-10-31T04:00:42;11.10;99.90
18753;DHT22;9505;50.882;5.350;2022-10-31T04:03:24;11.10;99.90
18753;DHT22;9505;50.882;5.350;2022-10-31T04:05:53;11.10;99.90
18753;DHT22;9505;50.882;5.350;2022-10-31T04:08:23;11.10;99.90
18753;DHT22;9505;50.882;5.350;2022-10-31T04:10:51;11.10;99.90
18753;DHT22;9505;50.882;5.350;2022-10-31T04:13:21;11.00;99.90
18753;DHT22;9505;50.882;5.350;2022-10-31T04:15:50;11.00;99.90
18753;DHT22;9505;50.882;5.350;2022-10-31T04:18:17;10.90;99.90
18753;DHT22;9505;50.882;5.350;2022-10-31T04:20:43;10.90;99.90
18753;DHT22;9505;50.882;5.350;2022-10-31T04:23:20;10.80;99.90
18753;DHT22;9505;50.882;5.350;2022-10-31T04:25:46;10.80;99.90
18753;DHT22;9505;50.882;5.350;2022-10-31T04:28:11;10.80;99.90
18753;DHT22;9505;50.882;5.350;2022-10-31T04:30:37;10.80;99.90
18753;DHT22;9505;50.882;5.350;2022-10-31T04:33:02;10.70;99.90
18753;DHT22;9505;50.882;5.350;2022-10-31T04:35:28;10.70;99.90
18753;DHT22;9505;50.882;5.350;2022-10-31T04:37:54;10.70;99.90
18753;DHT22;9505;50.882;5.350;2022-10-31T04:40:19;10.70;99.90
18753;DHT22;9505;50.882;5.350;2022-10-31T04:42:45;10.60;99.90
18753;DHT22;9505;50.882;5.350;2022-10-31T04:45:10;10.60;99.90
18753;DHT22;9505;50.882;5.350;2022-10-31T04:47:36;10.60;99.90
18753;DHT22;9505;50.882;5.350;2022-10-31T04:50:02;10.60;99.90
18753;DHT22;9505;50.882;5.350;2022-10-31T04:52:28;10.60;99.90
18753;DHT22;9505;50.882;5.350;2022-10-31T04:54:53;10.50;99.90
18753;DHT22;9505;50.882;5.350;2022-10-31T04:57:19;10.50;99.90
18753;DHT22;9505;50.882;5.350;2022-10-31T04:59:45;10.40;99.90
18753;DHT22;9505;50.882;5.350;2022-10-31T05:02:10;10.40;99.90
18753;DHT22;9505;50.882;5.350;2022-10-31T05:04:36;10.30;99.90
18753;DHT22;9505;50.882;5.350;2022-10-31T05:07:01;10.30;99.90
18753;DHT22;9505;50.882;5.350;2022-10-31T05:09:27;10.30;99.90
18753;DHT22;9505;50.882;5.350;2022-10-31T05:11:52;10.20;99.90
18753;DHT22;9505;50.882;5.350;2022-10-31T05:14:18;10.20;99.90
18753;DHT22;9505;50.882;5.350;2022-10-31T05:16:44;10.20;99.90
18753;DHT22;9505;50.882;5.350;2022-10-31T05:19:09;10.20;99.90
18753;DHT22;9505;50.882;5.350;2022-10-31T05:21:35;10.20;99.90
18753;DHT22;9505;50.882;5.350;2022-10-31T05:24:00;10.20;99.90
18753;DHT22;9505;50.882;5.350;2022-10-31T05:26:26;10.20;99.90
18753;DHT22;9505;50.882;5.350;2022-10-31T05:28:51;10.30;99.90
18753;DHT22;9505;50.882;5.350;2022-10-31T05:31:17;10.30;99.90
18753;DHT22;9505;50.882;5.350;2022-10-31T05:33:43;10.30;99.90
18753;DHT22;9505;50.882;5.350;2022-10-31T05:36:08;10.40;99.90
18753;DHT22;9505;50.882;5.350;2022-10-31T05:38:34;10.40;99.90
18753;DHT22;9505;50.882;5.350;2022-10-31T05:40:59;10.50;99.90
18753;DHT22;9505;50.882;5.350;2022-10-31T05:43:27;10.60;99.90
18753;DHT22;9505;50.882;5.350;2022-10-31T05:45:53;10.60;99.90
18753;DHT22;9505;50.882;5.350;2022-10-31T05:48:19;10.60;99.90
18753;DHT22;9505;50.882;5.350;2022-10-31T05:50:45;10.60;99.90
18753;DHT22;9505;50.882;5.350;2022-10-31T05:53:12;10.60;99.90
18753;DHT22;9505;50.882;5.350;2022-10-31T05:55:38;10.60;99.90
18753;DHT22;9505;50.882;5.350;2022-10-31T05:58:04;10.60;99.90
18753;DHT22;9505;50.882;5.350;2022-10-31T06:00:30;10.60;99.90
18753;DHT22;9505;50.882;5.350;2022-10-31T06:03:04;10.50;99.90
18753;DHT22;9505;50.882;5.350;2022-10-31T06:05:30;10.60;99.90
18753;DHT22;9505;50.882;5.350;2022-10-31T06:07:57;10.60;99.90
18753;DHT22;9505;50.882;5.350;2022-10-31T06:10:22;10.50;99.90
18753;DHT22;9505;50.882;5.350;2022-10-31T06:12:48;10.50;99.90
18753;DHT22;9505;50.882;5.350;2022-10-31T06:15:14;10.50;99.90
18753;DHT22;9505;50.882;5.350;2022-10-31T06:17:40;10.40;99.90
18753;DHT22;9505;50.882;5.350;2022-10-31T06:20:07;10.40;99.90
18753;DHT22;9505;50.882;5.350;2022-10-31T06:22:33;10.40;99.90
18753;DHT22;9505;50.882;5.350;2022-10-31T06:24:58;10.40;99.90
18753;DHT22;9505;50.882;5.350;2022-10-31T06:27:24;10.30;99.90
18753;DHT22;9505;50.882;5.350;2022-10-31T06:29:51;10.30;99.90
18753;DHT22;9505;50.882;5.350;2022-10-31T06:32:17;10.40;99.90
18753;DHT22;9505;50.882;5.350;2022-10-31T06:34:43;10.40;99.90
18753;DHT22;9505;50.882;5.350;2022-10-31T06:37:11;10.40;99.90
18753;DHT22;9505;50.882;5.350;2022-10-31T06:39:37;10.50;99.90
18753;DHT22;9505;50.882;5.350;2022-10-31T06:42:03;10.50;99.90
18753;DHT22;9505;50.882;5.350;2022-10-31T06:44:30;10.50;99.90
18753;DHT22;9505;50.882;5.350;2022-10-31T06:46:55;10.50;99.90
18753;DHT22;9505;50.882;5.350;2022-10-31T06:49:21;10.50;99.90
18753;DHT22;9505;50.882;5.350;2022-10-31T06:51:48;10.50;99.90
18753;DHT22;9505;50.882;5.350;2022-10-31T06:54:14;10.60;99.90
18753;DHT22;9505;50.882;5.350;2022-10-31T06:56:39;10.60;99.90
18753;DHT22;9505;50.882;5.350;2022-10-31T06:59:05;10.60;99.90
18753;DHT22;9505;50.882;5.350;2022-10-31T07:01:31;10.60;99.90
18753;DHT22;9505;50.882;5.350;2022-10-31T07:03:56;10.70;99.90
18753;DHT22;9505;50.882;5.350;2022-10-31T07:06:22;10.70;99.90
18753;DHT22;9505;50.882;5.350;2022-10-31T07:08:48;10.80;99.90
18753;DHT22;9505;50.882;5.350;2022-10-31T07:11:14;10.70;99.90
18753;DHT22;9505;50.882;5.350;2022-10-31T07:13:39;10.70;99.90
18753;DHT22;9505;50.882;5.350;2022-10-31T07:16:05;10.70;99.90
18753;DHT22;9505;50.882;5.350;2022-10-31T07:18:32;10.80;99.90
18753;DHT22;9505;50.882;5.350;2022-10-31T07:20:58;10.90;99.90
18753;DHT22;9505;50.882;5.350;2022-10-31T07:23:23;10.90;99.90
18753;DHT22;9505;50.882;5.350;2022-10-31T07:25:55;10.90;99.90
18753;DHT22;9505;50.882;5.350;2022-10-31T07:28:20;10.80;99.90
18753;DHT22;9505;50.882;5.350;2022-10-31T07:30:52;10.90;99.90
18753;DHT22;9505;50.882;5.350;2022-10-31T07:33:19;10.90;99.90
18753;DHT22;9505;50.882;5.350;2022-10-31T07:35:44;11.00;99.90
18753;DHT22;9505;50.882;5.350;2022-10-31T07:38:12;11.00;99.90
18753;DHT22;9505;50.882;5.350;2022-10-31T07:40:39;11.10;99.90
18753;DHT22;9505;50.882;5.350;2022-10-31T07:43:05;11.10;99.90
18753;DHT22;9505;50.882;5.350;2022-10-31T07:45:30;11.20;99.90
18753;DHT22;9505;50.882;5.350;2022-10-31T07:47:56;11.30;99.90
18753;DHT22;9505;50.882;5.350;2022-10-31T07:50:29;11.30;99.90
18753;DHT22;9505;50.882;5.350;2022-10-31T07:53:14;11.40;99.90
18753;DHT22;9505;50.882;5.350;2022-10-31T07:55:40;11.60;99.90
18753;DHT22;9505;50.882;5.350;2022-10-31T07:58:10;11.60;99.90
18753;DHT22;9505;50.882;5.350;2022-10-31T08:00:38;11.70;99.90
18753;DHT22;9505;50.882;5.350;2022-10-31T08:03:07;11.70;99.90
18753;DHT22;9505;50.882;5.350;2022-10-31T08:05:33;11.70;99.90
18753;DHT22;9505;50.882;5.350;2022-10-31T08:07:59;11.90;99.90
18753;DHT22;9505;50.882;5.350;2022-10-31T08:10:26;12.10;99.90
18753;DHT22;9505;50.882;5.350;2022-10-31T08:15:28;12.70;99.90
18753;DHT22;9505;50.882;5.350;2022-10-31T08:17:54;12.90;99.90
18753;DHT22;9505;50.882;5.350;2022-10-31T08:20:20;13.10;99.90
18753;DHT22;9505;50.882;5.350;2022-10-31T08:22:56;13.20;99.90
18753;DHT22;9505;50.882;5.350;2022-10-31T08:25:22;13.40;99.90
18753;DHT22;9505;50.882;5.350;2022-10-31T08:27:53;13.50;99.90
18753;DHT22;9505;50.882;5.350;2022-10-31T08:30:20;13.90;99.90
18753;DHT22;9505;50.882;5.350;2022-10-31T08:32:46;14.40;99.90
18753;DHT22;9505;50.882;5.350;2022-10-31T08:35:12;14.70;99.90
18753;DHT22;9505;50.882;5.350;2022-10-31T08:37:37;14.80;99.90
18753;DHT22;9505;50.882;5.350;2022-10-31T08:40:04;14.90;99.90
18753;DHT22;9505;50.882;5.350;2022-10-31T08:42:29;14.90;99.90
18753;DHT22;9505;50.882;5.350;2022-10-31T08:44:55;15.00;99.90
18753;DHT22;9505;50.882;5.350;2022-10-31T08:47:20;14.90;99.90
18753;DHT22;9505;50.882;5.350;2022-10-31T08:49:46;15.00;99.90
18753;DHT22;9505;50.882;5.350;2022-10-31T08:52:11;15.30;99.90
18753;DHT22;9505;50.882;5.350;2022-10-31T08:54:37;15.50;99.90
18753;DHT22;9505;50.882;5.350;2022-10-31T08:57:02;15.70;99.90
18753;DHT22;9505;50.882;5.350;2022-10-31T08:59:28;16.00;99.90
18753;DHT22;9505;50.882;5.350;2022-10-31T09:01:54;16.30;99.90
18753;DHT22;9505;50.882;5.350;2022-10-31T09:04:19;16.40;99.90
18753;DHT22;9505;50.882;5.350;2022-10-31T09:06:45;16.10;99.90
18753;DHT22;9505;50.882;5.350;2022-10-31T09:09:10;15.90;99.90
18753;DHT22;9505;50.882;5.350;2022-10-31T09:11:36;15.70;99.90
18753;DHT22;9505;50.882;5.350;2022-10-31T09:14:01;15.70;99.90
18753;DHT22;9505;50.882;5.350;2022-10-31T09:16:27;15.70;99.90
18753;DHT22;9505;50.882;5.350;2022-10-31T09:18:53;15.70;99.90
18753;DHT22;9505;50.882;5.350;2022-10-31T09:21:18;15.80;99.90
18753;DHT22;9505;50.882;5.350;2022-10-31T09:23:44;15.80;99.90
18753;DHT22;9505;50.882;5.350;2022-10-31T09:26:09;15.80;99.90
18753;DHT22;9505;50.882;5.350;2022-10-31T09:28:35;15.90;99.90
18753;DHT22;9505;50.882;5.350;2022-10-31T09:31:00;16.00;99.90
18753;DHT22;9505;50.882;5.350;2022-10-31T09:33:26;16.00;99.90
18753;DHT22;9505;50.882;5.350;2022-10-31T09:35:51;16.10;99.90
18753;DHT22;9505;50.882;5.350;2022-10-31T09:38:19;16.00;99.90
18753;DHT22;9505;50.882;5.350;2022-10-31T09:41:12;15.90;99.90
18753;DHT22;9505;50.882;5.350;2022-10-31T09:43:54;15.90;99.90
18753;DHT22;9505;50.882;5.350;2022-10-31T09:52:03;16.10;99.90
18753;DHT22;9505;50.882;5.350;2022-10-31T09:57:17;16.40;99.90
18753;DHT22;9505;50.882;5.350;2022-10-31T09:59:46;16.70;99.90
18753;DHT22;9505;50.882;5.350;2022-10-31T10:02:15;16.80;99.90
18753;DHT22;9505;50.882;5.350;2022-10-31T10:07:45;17.20;99.90
18753;DHT22;9505;50.882;5.350;2022-10-31T10:10:17;17.60;99.90
18753;DHT22;9505;50.882;5.350;2022-10-31T10:13:04;17.80;99.90
18753;DHT22;9505;50.882;5.350;2022-10-31T10:18:32;17.80;99.90
18753;DHT22;9505;50.882;5.350;2022-10-31T10:23:57;17.70;99.90
18753;DHT22;9505;50.882;5.350;2022-10-31T10:26:37;17.70;99.90
18753;DHT22;9505;50.882;5.350;2022-10-31T10:29:29;17.70;99.90
18753;DHT22;9505;50.882;5.350;2022-10-31T10:31:58;17.70;99.90
18753;DHT22;9505;50.882;5.350;2022-10-31T10:34:32;17.80;99.90
18753;DHT22;9505;50.882;5.350;2022-10-31T10:39:45;17.70;99.90
18753;DHT22;9505;50.882;5.350;2022-10-31T10:42:13;17.80;99.90
18753;DHT22;9505;50.882;5.350;2022-10-31T10:44:58;18.00;99.90
18753;DHT22;9505;50.882;5.350;2022-10-31T10:47:49;18.20;99.90
18753;DHT22;9505;50.882;5.350;2022-10-31T10:50:22;18.40;99.90
18753;DHT22;9505;50.882;5.350;2022-10-31T10:52:59;18.50;99.90
18753;DHT22;9505;50.882;5.350;2022-10-31T10:55:51;18.40;99.90
18753;DHT22;9505;50.882;5.350;2022-10-31T10:58:18;18.30;99.90
18753;DHT22;9505;50.882;5.350;2022-10-31T11:00:46;18.10;99.90
18753;DHT22;9505;50.882;5.350;2022-10-31T11:03:13;18.10;99.90
18753;DHT22;9505;50.882;5.350;2022-10-31T11:05:44;18.10;99.90
18753;DHT22;9505;50.882;5.350;2022-10-31T11:08:23;18.00;99.90
18753;DHT22;9505;50.882;5.350;2022-10-31T11:13:41;18.20;99.90
18753;DHT22;9505;50.882;5.350;2022-10-31T11:16:10;18.40;99.90
18753;DHT22;9505;50.882;5.350;2022-10-31T11:18:42;18.50;99.90
18753;DHT22;9505;50.882;5.350;2022-10-31T11:21:28;18.60;99.90
18753;DHT22;9505;50.882;5.350;2022-10-31T11:26:34;19.00;99.90
18753;DHT22;9505;50.882;5.350;2022-10-31T11:29:01;19.00;99.90
18753;DHT22;9505;50.882;5.350;2022-10-31T11:31:29;18.90;99.90
18753;DHT22;9505;50.882;5.350;2022-10-31T11:34:12;18.70;99.90
18753;DHT22;9505;50.882;5.350;2022-10-31T11:36:43;18.80;99.90
18753;DHT22;9505;50.882;5.350;2022-10-31T11:39:20;19.00;99.90
18753;DHT22;9505;50.882;5.350;2022-10-31T11:41:47;19.00;99.90
18753;DHT22;9505;50.882;5.350;2022-10-31T11:44:29;19.00;99.90
18753;DHT22;9505;50.882;5.350;2022-10-31T11:46:58;18.90;99.90
18753;DHT22;9505;50.882;5.350;2022-10-31T11:49:38;18.90;99.90
18753;DHT22;9505;50.882;5.350;2022-10-31T11:52:08;19.00;99.90
18753;DHT22;9505;50.882;5.350;2022-10-31T11:54:58;19.10;99.90
18753;DHT22;9505;50.882;5.350;2022-10-31T11:57:29;19.20;99.90
18753;DHT22;9505;50.882;5.350;2022-10-31T11:59:58;19.50;99.90
18753;DHT22;9505;50.882;5.350;2022-10-31T12:02:24;19.60;99.90
18753;DHT22;9505;50.882;5.350;2022-10-31T12:07:22;19.90;99.90
18753;DHT22;9505;50.882;5.350;2022-10-31T12:09:48;20.00;99.90
18753;DHT22;9505;50.882;5.350;2022-10-31T12:15:22;19.90;99.90
18753;DHT22;9505;50.882;5.350;2022-10-31T12:18:17;19.90;99.90
18753;DHT22;9505;50.882;5.350;2022-10-31T12:20:53;20.10;99.90
18753;DHT22;9505;50.882;5.350;2022-10-31T12:26:18;20.20;99.90
18753;DHT22;9505;50.882;5.350;2022-10-31T12:28:52;20.20;99.90
18753;DHT22;9505;50.882;5.350;2022-10-31T12:37:06;19.70;99.90
18753;DHT22;9505;50.882;5.350;2022-10-31T12:50:33;19.90;99.90
18753;DHT22;9505;50.882;5.350;2022-10-31T12:59:38;19.90;99.90
18753;DHT22;9505;50.882;5.350;2022-10-31T13:08:07;19.90;99.90
18753;DHT22;9505;50.882;5.350;2022-10-31T13:11:04;20.10;99.90
18753;DHT22;9505;50.882;5.350;2022-10-31T13:13:59;20.30;99.90
18753;DHT22;9505;50.882;5.350;2022-10-31T13:16:32;20.30;99.90
18753;DHT22;9505;50.882;5.350;2022-10-31T13:19:08;20.20;99.90
18753;DHT22;9505;50.882;5.350;2022-10-31T13:21:46;20.40;99.90
18753;DHT22;9505;50.882;5.350;2022-10-31T13:24:19;20.60;99.90
18753;DHT22;9505;50.882;5.350;2022-10-31T13:26:47;20.60;99.90
18753;DHT22;9505;50.882;5.350;2022-10-31T13:29:33;20.70;99.90
18753;DHT22;9505;50.882;5.350;2022-10-31T13:32:00;21.00;99.90
18753;DHT22;9505;50.882;5.350;2022-10-31T13:34:40;21.20;99.90
18753;DHT22;9505;50.882;5.350;2022-10-31T13:37:23;21.30;99.90
18753;DHT22;9505;50.882;5.350;2022-10-31T13:45:49;22.20;99.90
18753;DHT22;9505;50.882;5.350;2022-10-31T13:50:42;22.00;99.90
18753;DHT22;9505;50.882;5.350;2022-10-31T13:53:13;22.00;99.90
18753;DHT22;9505;50.882;5.350;2022-10-31T13:55:43;22.10;99.90
18753;DHT22;9505;50.882;5.350;2022-10-31T13:58:28;22.00;99.90
18753;DHT22;9505;50.882;5.350;2022-10-31T14:01:26;22.30;99.90
18753;DHT22;9505;50.882;5.350;2022-10-31T14:09:05;23.00;99.90
18753;DHT22;9505;50.882;5.350;2022-10-31T14:11:31;23.20;99.90
18753;DHT22;9505;50.882;5.350;2022-10-31T14:13:58;23.50;99.90
18753;DHT22;9505;50.882;5.350;2022-10-31T14:16:29;23.70;99.90
18753;DHT22;9505;50.882;5.350;2022-10-31T14:19:05;23.80;99.90
18753;DHT22;9505;50.882;5.350;2022-10-31T14:21:38;23.00;99.90
18753;DHT22;9505;50.882;5.350;2022-10-31T14:27:03;23.00;99.90
18753;DHT22;9505;50.882;5.350;2022-10-31T14:29:31;23.20;99.90
18753;DHT22;9505;50.882;5.350;2022-10-31T14:32:20;23.40;99.90
18753;DHT22;9505;50.882;5.350;2022-10-31T14:40:39;23.00;99.90
18753;DHT22;9505;50.882;5.350;2022-10-31T14:45:59;21.90;99.90
18753;DHT22;9505;50.882;5.350;2022-10-31T14:48:43;21.60;99.90
18753;DHT22;9505;50.882;5.350;2022-10-31T14:51:40;21.30;99.90
18753;DHT22;9505;50.882;5.350;2022-10-31T14:54:14;21.00;99.90
18753;DHT22;9505;50.882;5.350;2022-10-31T14:56:49;21.00;99.90
18753;DHT22;9505;50.882;5.350;2022-10-31T14:59:19;20.80;99.90
18753;DHT22;9505;50.882;5.350;2022-10-31T15:02:26;20.70;99.90
18753;DHT22;9505;50.882;5.350;2022-10-31T15:04:53;20.70;99.90
18753;DHT22;9505;50.882;5.350;2022-10-31T15:07:21;20.60;99.90
18753;DHT22;9505;50.882;5.350;2022-10-31T15:10:05;20.50;99.90
18753;DHT22;9505;50.882;5.350;2022-10-31T15:12:32;20.40;99.90
18753;DHT22;9505;50.882;5.350;2022-10-31T15:15:11;20.20;99.90
18753;DHT22;9505;50.882;5.350;2022-10-31T15:17:43;20.20;99.90
18753;DHT22;9505;50.882;5.350;2022-10-31T15:20:18;20.00;99.90
18753;DHT22;9505;50.882;5.350;2022-10-31T15:22:44;20.00;99.90
18753;DHT22;9505;50.882;5.350;2022-10-31T15:25:19;20.00;99.90
18753;DHT22;9505;50.882;5.350;2022-10-31T15:27:46;19.90;99.90
18753;DHT22;9505;50.882;5.350;2022-10-31T15:30:24;19.80;99.90
18753;DHT22;9505;50.882;5.350;2022-10-31T15:32:50;19.70;99.90
18753;DHT22;9505;50.882;5.350;2022-10-31T15:35:25;19.60;99.90
18753;DHT22;9505;50.882;5.350;2022-10-31T15:37:54;19.40;99.90
18753;DHT22;9505;50.882;5.350;2022-10-31T15:40:23;19.30;99.90
18753;DHT22;9505;50.882;5.350;2022-10-31T15:42:57;19.10;99.90
18753;DHT22;9505;50.882;5.350;2022-10-31T15:45:25;19.00;99.90
18753;DHT22;9505;50.882;5.350;2022-10-31T15:48:02;18.90;99.90
18753;DHT22;9505;50.882;5.350;2022-10-31T15:50:44;18.90;99.90
18753;DHT22;9505;50.882;5.350;2022-10-31T15:53:20;18.80;99.90
18753;DHT22;9505;50.882;5.350;2022-10-31T15:55:54;18.70;99.90
18753;DHT22;9505;50.882;5.350;2022-10-31T15:58:21;18.60;99.90
18753;DHT22;9505;50.882;5.350;2022-10-31T16:01:02;18.50;99.90
18753;DHT22;9505;50.882;5.350;2022-10-31T16:03:31;18.40;99.90
18753;DHT22;9505;50.882;5.350;2022-10-31T16:05:58;18.30;99.90
18753;DHT22;9505;50.882;5.350;2022-10-31T16:13:41;17.90;99.90
18753;DHT22;9505;50.882;5.350;2022-10-31T16:16:16;17.70;99.90
18753;DHT22;9505;50.882;5.350;2022-10-31T16:18:43;17.50;99.90
18753;DHT22;9505;50.882;5.350;2022-10-31T16:21:09;17.40;99.90
18753;DHT22;9505;50.882;5.350;2022-10-31T16:23:37;17.20;99.90
18753;DHT22;9505;50.882;5.350;2022-10-31T16:26:07;17.00;99.90
18753;DHT22;9505;50.882;5.350;2022-10-31T16:28:33;16.80;99.90
18753;DHT22;9505;50.882;5.350;2022-10-31T16:30:59;16.50;99.90
18753;DHT22;9505;50.882;5.350;2022-10-31T16:33:36;16.30;99.90
18753;DHT22;9505;50.882;5.350;2022-10-31T16:38:59;16.30;99.90
18753;DHT22;9505;50.882;5.350;2022-10-31T16:41:25;16.50;99.90
18753;DHT22;9505;50.882;5.350;2022-10-31T16:43:51;16.60;99.90
18753;DHT22;9505;50.882;5.350;2022-10-31T16:46:26;16.60;99.90
18753;DHT22;9505;50.882;5.350;2022-10-31T16:48:53;16.70;99.90
18753;DHT22;9505;50.882;5.350;2022-10-31T16:51:18;16.70;99.90
18753;DHT22;9505;50.882;5.350;2022-10-31T16:53:44;16.70;99.90
18753;DHT22;9505;50.882;5.350;2022-10-31T16:56:29;16.70;99.90
18753;DHT22;9505;50.882;5.350;2022-10-31T16:58:55;16.60;99.90
18753;DHT22;9505;50.882;5.350;2022-10-31T17:01:21;16.50;99.90
18753;DHT22;9505;50.882;5.350;2022-10-31T17:03:47;16.30;99.90
18753;DHT22;9505;50.882;5.350;2022-10-31T17:06:13;16.00;99.90
18753;DHT22;9505;50.882;5.350;2022-10-31T17:08:39;15.90;99.90
18753;DHT22;9505;50.882;5.350;2022-10-31T17:11:05;15.80;99.90
18753;DHT22;9505;50.882;5.350;2022-10-31T17:13:33;15.60;99.90
18753;DHT22;9505;50.882;5.350;2022-10-31T17:16:01;15.50;99.90
18753;DHT22;9505;50.882;5.350;2022-10-31T17:18:28;15.40;99.90
18753;DHT22;9505;50.882;5.350;2022-10-31T17:20:56;15.20;99.90
18753;DHT22;9505;50.882;5.350;2022-10-31T17:23:23;15.10;99.90
18753;DHT22;9505;50.882;5.350;2022-10-31T17:25:49;14.80;99.90
18753;DHT22;9505;50.882;5.350;2022-10-31T17:28:14;14.60;99.90
18753;DHT22;9505;50.882;5.350;2022-10-31T17:30:41;14.50;99.90
18753;DHT22;9505;50.882;5.350;2022-10-31T17:33:11;14.40;99.90
18753;DHT22;9505;50.882;5.350;2022-10-31T17:35:37;14.30;99.90
18753;DHT22;9505;50.882;5.350;2022-10-31T17:38:02;14.30;99.90
18753;DHT22;9505;50.882;5.350;2022-10-31T17:40:29;14.20;99.90
18753;DHT22;9505;50.882;5.350;2022-10-31T17:42:56;14.20;99.90
18753;DHT22;9505;50.882;5.350;2022-10-31T17:45:23;14.10;99.90
18753;DHT22;9505;50.882;5.350;2022-10-31T17:47:51;14.10;99.90
18753;DHT22;9505;50.882;5.350;2022-10-31T17:50:19;14.10;99.90
18753;DHT22;9505;50.882;5.350;2022-10-31T17:52:45;14.00;99.90
18753;DHT22;9505;50.882;5.350;2022-10-31T17:55:11;14.10;99.90
18753;DHT22;9505;50.882;5.350;2022-10-31T17:57:38;14.10;99.90
18753;DHT22;9505;50.882;5.350;2022-10-31T18:00:06;14.10;99.90
18753;DHT22;9505;50.882;5.350;2022-10-31T18:02:33;14.10;99.90
18753;DHT22;9505;50.882;5.350;2022-10-31T18:04:58;14.10;99.90
18753;DHT22;9505;50.882;5.350;2022-10-31T18:07:27;14.00;99.90
18753;DHT22;9505;50.882;5.350;2022-10-31T18:09:53;14.00;99.90
18753;DHT22;9505;50.882;5.350;2022-10-31T18:12:19;14.00;99.90